Time;durP1;ratioP1;P1;durP2;ratioP2;P2;SDS_P1;SDS_P2;PMS_P1;PMS_P2;Temp;Humidity;BMP_temperature;BMP_pressure;BME280_temperature;BME280_humidity;BME280_pressure;Samples;Min_cycle;Max_cycle;Signal;HPM_P1;HPM_P2
2019/11/27 00:00:47;;;;;;;3.8;2.1;;;;;;;;;;;;;
2019/11/27 00:03:11;;;;;;;6.5;3.5;;;;;;;;;;;;;
2019/11/27 00:05:36;;;;;;;14.4;7.6;;;;;;;;;;;;;
2019/11/27 00:08:04;;;;;;;11.6;5.6;;;;;;;;;;;;;
2019/11/27 00:10:28;;;;;;;8.9;4.4;;;;;;;;;;;;;
2019/11/27 00:12:53;;;;;;;12.1;7;;;;;;;;;;;;;
2019/11/27 00:15:18;;;;;;;10.4;5.9;;;;;;;;;;;;;
2019/11/27 00:17:46;;;;;;;6.4;4.1;;;;;;;;;;;;;
2019/11/27 00:20:10;;;;;;;7.9;4.2;;;;;;;;;;;;;
2019/11/27 00:22:34;;;;;;;7;4.1;;;;;;;;;;;;;
2019/11/27 00:25:02;;;;;;;7;4.4;;;;;;;;;;;;;
2019/11/27 00:27:26;;;;;;;6.6;4.1;;;;;;;;;;;;;
2019/11/27 00:29:52;;;;;;;6;4.4;;;;;;;;;;;;;
2019/11/27 00:32:21;;;;;;;6.3;3.8;;;;;;;;;;;;;
2019/11/27 00:39:33;;;;;;;5.6;3.7;;;;;;;;;;;;;
2019/11/27 00:42:05;;;;;;;5.9;3.3;;;;;;;;;;;;;
2019/11/27 00:44:33;;;;;;;5.2;3.4;;;;;;;;;;;;;
2019/11/27 00:46:56;;;;;;;6.6;3.7;;;;;;;;;;;;;
2019/11/27 00:49:22;;;;;;;4.8;3;;;;;;;;;;;;;
2019/11/27 00:51:48;;;;;;;5.6;3.3;;;;;;;;;;;;;
2019/11/27 00:54:18;;;;;;;4.2;2.7;;;;;;;;;;;;;
2019/11/27 00:56:39;;;;;;;4.7;3.1;;;;;;;;;;;;;
2019/11/27 00:59:05;;;;;;;5.3;3.2;;;;;;;;;;;;;
2019/11/27 01:01:42;;;;;;;4.5;2.8;;;;;;;;;;;;;
2019/11/27 01:04:07;;;;;;;4;1.9;;;;;;;;;;;;;
2019/11/27 01:06:30;;;;;;;4.3;2.1;;;;;;;;;;;;;
2019/11/27 01:08:54;;;;;;;4.1;2.2;;;;;;;;;;;;;
2019/11/27 01:11:19;;;;;;;4.7;2.5;;;;;;;;;;;;;
2019/11/27 01:13:48;;;;;;;5.2;2.8;;;;;;;;;;;;;
2019/11/27 01:16:30;;;;;;;4.6;3;;;;;;;;;;;;;
2019/11/27 01:18:54;;;;;;;3.1;2;;;;;;;;;;;;;
2019/11/27 01:21:18;;;;;;;3.2;2.1;;;;;;;;;;;;;
2019/11/27 01:23:43;;;;;;;4.3;2.8;;;;;;;;;;;;;
2019/11/27 01:26:08;;;;;;;5;3.9;;;;;;;;;;;;;
2019/11/27 01:28:35;;;;;;;4.2;2.7;;;;;;;;;;;;;
2019/11/27 01:30:59;;;;;;;4.3;2.7;;;;;;;;;;;;;
2019/11/27 01:33:24;;;;;;;5.3;2.6;;;;;;;;;;;;;
2019/11/27 01:35:55;;;;;;;4.7;2.9;;;;;;;;;;;;;
2019/11/27 01:38:15;;;;;;;5.3;2.2;;;;;;;;;;;;;
2019/11/27 01:40:42;;;;;;;4.1;2.5;;;;;;;;;;;;;
2019/11/27 01:43:08;;;;;;;6.6;2.7;;;;;;;;;;;;;
2019/11/27 01:45:32;;;;;;;4.2;2.5;;;;;;;;;;;;;
2019/11/27 01:47:57;;;;;;;4.4;2.5;;;;;;;;;;;;;
2019/11/27 01:50:23;;;;;;;5.2;2.9;;;;;;;;;;;;;
2019/11/27 01:52:52;;;;;;;6.5;2.8;;;;;;;;;;;;;
2019/11/27 02:00:51;;;;;;;3.6;2.2;;;;;;;;;;;;;
2019/11/27 02:03:15;;;;;;;2.8;1.9;;;;;;;;;;;;;
2019/11/27 02:05:42;;;;;;;6.1;2.3;;;;;;;;;;;;;
2019/11/27 02:08:13;;;;;;;3.8;2.5;;;;;;;;;;;;;
2019/11/27 02:10:40;;;;;;;3.4;2;;;;;;;;;;;;;
2019/11/27 02:13:04;;;;;;;3.2;1.5;;;;;;;;;;;;;
2019/11/27 02:15:30;;;;;;;3.1;1.9;;;;;;;;;;;;;
2019/11/27 02:18:03;;;;;;;3.1;2.2;;;;;;;;;;;;;
2019/11/27 02:20:25;;;;;;;3.2;1.9;;;;;;;;;;;;;
2019/11/27 02:22:53;;;;;;;3.1;2;;;;;;;;;;;;;
2019/11/27 02:25:19;;;;;;;3.6;2.1;;;;;;;;;;;;;
2019/11/27 02:27:46;;;;;;;5.9;2.6;;;;;;;;;;;;;
2019/11/27 02:30:11;;;;;;;6.3;2.8;;;;;;;;;;;;;
2019/11/27 02:35:13;;;;;;;3.1;2.2;;;;;;;;;;;;;
2019/11/27 02:37:32;;;;;;;3.5;1.9;;;;;;;;;;;;;
2019/11/27 02:39:55;;;;;;;4.6;2.5;;;;;;;;;;;;;
2019/11/27 02:42:24;;;;;;;6.3;3;;;;;;;;;;;;;
2019/11/27 02:44:48;;;;;;;6.7;3.1;;;;;;;;;;;;;
2019/11/27 02:47:13;;;;;;;7.2;3.1;;;;;;;;;;;;;
2019/11/27 02:49:39;;;;;;;5.6;2.9;;;;;;;;;;;;;
2019/11/27 02:52:06;;;;;;;7.8;2.9;;;;;;;;;;;;;
2019/11/27 02:54:32;;;;;;;6.2;3;;;;;;;;;;;;;
2019/11/27 02:56:58;;;;;;;6.5;3.1;;;;;;;;;;;;;
2019/11/27 02:59:27;;;;;;;4.7;2.4;;;;;;;;;;;;;
2019/11/27 03:01:53;;;;;;;4.9;2.2;;;;;;;;;;;;;
2019/11/27 03:04:29;;;;;;;6.4;2.2;;;;;;;;;;;;;
2019/11/27 03:06:44;;;;;;;5.3;2.2;;;;;;;;;;;;;
2019/11/27 03:09:10;;;;;;;7;3.1;;;;;;;;;;;;;
2019/11/27 03:11:41;;;;;;;6.6;3.4;;;;;;;;;;;;;
2019/11/27 03:14:05;;;;;;;5.2;2.6;;;;;;;;;;;;;
2019/11/27 03:16:35;;;;;;;5.1;3;;;;;;;;;;;;;
2019/11/27 03:19:00;;;;;;;6;2.6;;;;;;;;;;;;;
2019/11/27 03:21:27;;;;;;;4.4;2.2;;;;;;;;;;;;;
2019/11/27 03:23:53;;;;;;;1.7;1;;;;;;;;;;;;;
2019/11/27 03:26:44;;;;;;;4.3;2.1;;;;;;;;;;;;;
2019/11/27 03:33:34;;;;;;;5.2;2.4;;;;;;;;;;;;;
2019/11/27 03:35:57;;;;;;;6.8;3.7;;;;;;;;;;;;;
2019/11/27 03:38:26;;;;;;;6.2;3.1;;;;;;;;;;;;;
2019/11/27 03:40:49;;;;;;;5.2;2.7;;;;;;;;;;;;;
2019/11/27 03:43:15;;;;;;;4.3;2.3;;;;;;;;;;;;;
2019/11/27 03:46:38;;;;;;;3.7;2.2;;;;;;;;;;;;;
2019/11/27 03:49:03;;;;;;;4.3;1.9;;;;;;;;;;;;;
2019/11/27 03:51:31;;;;;;;5.1;2.3;;;;;;;;;;;;;
2019/11/27 03:53:56;;;;;;;3.9;2.2;;;;;;;;;;;;;
2019/11/27 03:56:22;;;;;;;4.3;2.4;;;;;;;;;;;;;
2019/11/27 03:58:46;;;;;;;3.7;2;;;;;;;;;;;;;
2019/11/27 04:02:40;;;;;;;3.4;1.9;;;;;;;6.52;76.1377;920.6984;;;;
2019/11/27 04:05:07;;;;;;;2.4;1.1;;;;;;;6.38;76.65625;920.6758;;;;
2019/11/27 04:07:38;;;;;;;0.7;0.7;;;;;;;6.81;70.05371;920.6666;;;;
2019/11/27 04:10:05;;;;;;;2.9;1;;;;;;;7.17;70.34082;920.7236;;;;
2019/11/27 04:12:37;;;;;;;3;1.1;;;;;;;7.5;70.50781;920.6744;;;;
2019/11/27 04:15:06;;;;;;;2.3;0.7;;;;;;;7.72;67.21973;920.6609;;;;
2019/11/27 04:17:45;;;;;;;1.6;1;;;;;;;7.83;69.38281;920.5739;;;;
2019/11/27 04:20:19;;;;;;;1.8;1;;;;;;;7.93;66.71973;920.5025;;;;
2019/11/27 04:22:45;;;;;;;2.3;0.9;;;;;;;8.11;65.74902;920.394;;;;
2019/11/27 04:25:56;;;;;;;1.4;0.8;;;;;;;8.26;67.22461;920.3856;;;;
2019/11/27 04:28:38;;;;;;;2.7;1;;;;;;;8.19;67.79297;920.3851;;;;
2019/11/27 04:32:01;;;;;;;4.2;1.4;;;;;;;7.79;69.08008;920.2484;;;;
2019/11/27 04:36:52;;;;;;;2.8;1.2;;;;;;;7.35;71.33203;920.2112;;;;
2019/11/27 04:39:19;;;;;;;2.9;1.3;;;;;;;7.3;71.63086;920.3098;;;;
2019/11/27 04:41:46;;;;;;;3.5;1.4;;;;;;;7.13;72.63281;920.1652;;;;
2019/11/27 04:44:13;;;;;;;1.6;1.1;;;;;;;6.96;73.88477;920.1834;;;;
2019/11/27 04:46:41;;;;;;;1.5;1.1;;;;;;;6.92;74.66797;920.137;;;;
2019/11/27 04:49:09;;;;;;;1.9;1.1;;;;;;;6.97;74.02246;920.1375;;;;
2019/11/27 04:51:34;;;;;;;1.2;0.9;;;;;;;6.99;71.36426;919.9594;;;;
2019/11/27 04:54:54;;;;;;;2.1;1.3;;;;;;;7.09;72.89746;920.0848;;;;
2019/11/27 04:57:26;;;;;;;5.4;2.5;;;;;;;7.16;71.14355;920.0692;;;;
2019/11/27 04:59:49;;;;;;;9.6;3.7;;;;;;;7.24;71.14453;920.0475;;;;
2019/11/27 05:02:21;;;;;;;3.3;2.1;;;;;;;7.24;72.62988;920.0427;;;;
2019/11/27 05:04:44;;;;;;;2.2;1.4;;;;;;;7.31;72.7207;919.9883;;;;
2019/11/27 05:07:08;;;;;;;3.3;1.6;;;;;;;7.32;72.84766;919.9542;;;;
2019/11/27 05:09:43;;;;;;;3.5;1.9;;;;;;;7.35;72.63574;920.0078;;;;
2019/11/27 05:12:58;;;;;;;4.4;2.3;;;;;;;7.27;72.57813;920.0076;;;;
2019/11/27 05:15:27;;;;;;;4.6;2.9;;;;;;;7.32;71.84961;919.9803;;;;
2019/11/27 05:18:02;;;;;;;6.6;5.1;;;;;;;7.33;73.35938;920.004;;;;
2019/11/27 05:20:30;;;;;;;7.2;4;;;;;;;7.45;72.90332;919.9186;;;;
2019/11/27 05:22:53;;;;;;;6.1;2.5;;;;;;;7.18;74.0127;919.9526;;;;
2019/11/27 05:25:24;;;;;;;4.4;2.6;;;;;;;7.14;73.73535;919.9142;;;;
2019/11/27 05:28:03;;;;;;;3.9;2.8;;;;;;;7.09;73.80469;920.1093;;;;
2019/11/27 05:30:28;;;;;;;2.5;1.7;;;;;;;7.08;74.60547;920.0903;;;;
2019/11/27 05:32:55;;;;;;;5.7;2.3;;;;;;;7.21;73.22461;920.0572;;;;
2019/11/27 05:35:20;;;;;;;2.8;1.6;;;;;;;7.38;72.24512;920.1509;;;;
2019/11/27 05:37:56;;;;;;;8.5;2.1;;;;;;;7.49;71.70801;920.1462;;;;
2019/11/27 05:41:16;;;;;;;4.3;1.9;;;;;;;7.57;70.9502;920.0584;;;;
2019/11/27 05:43:45;;;;;;;4.2;1.4;;;;;;;7.64;67.91113;920.1373;;;;
2019/11/27 05:46:14;;;;;;;3.8;1.5;;;;;;;8.01;66.57422;919.99;;;;
2019/11/27 05:48:44;;;;;;;5.4;1.7;;;;;;;8.05;68.56641;920.0467;;;;
2019/11/27 05:51:17;;;;;;;2.8;1.4;;;;;;;7.9;69.75586;920.0186;;;;
2019/11/27 05:53:49;;;;;;;1.2;0.8;;;;;;;7.91;66.87598;919.9044;;;;
2019/11/27 05:58:33;;;;;;;1.2;1.1;;;;;;;8.24;67.9834;919.9567;;;;
2019/11/27 06:00:59;;;;;;;5.5;1.6;;;;;;;8.4;67.42871;920.0075;;;;
2019/11/27 06:03:29;;;;;;;5.8;1.7;;;;;;;8.49;67.50977;919.9663;;;;
2019/11/27 06:05:58;;;;;;;5.2;1.6;;;;;;;8.54;64.37012;919.9442;;;;
2019/11/27 06:08:28;;;;;;;7.9;1.4;;;;;;;8.28;68.65918;920.0285;;;;
2019/11/27 06:11:07;;;;;;;2.1;0.8;;;;;;;8.23;69.33398;920.0172;;;;
2019/11/27 06:13:33;;;;;;;4;1.8;;;;;;;8.17;68.45996;920.0517;;;;
2019/11/27 06:17:04;;;;;;;6.4;2.1;;;;;;;8.65;62.4668;919.9788;;;;
2019/11/27 06:19:39;;;;;;;7.3;1.8;;;;;;;9.02;61.93945;919.9258;;;;
2019/11/27 06:22:12;;;;;;;11;1.9;;;;;;;9.15;62.8125;919.8977;;;;
2019/11/27 06:24:38;;;;;;;13.9;2.3;;;;;;;9.24;63.90527;919.9586;;;;
2019/11/27 06:28:27;;;;;;;13.8;2.2;;;;;;;9.04;65.62988;919.8962;;;;
2019/11/27 06:30:56;;;;;;;6.2;2.4;;;;;;;9.02;67.10449;919.9941;;;;
2019/11/27 06:33:24;;;;;;;13.8;2.7;;;;;;;8.89;66.83496;920.0647;;;;
2019/11/27 06:36:14;;;;;;;12.3;2.5;;;;;;;8.97;67.74609;920.0208;;;;
2019/11/27 06:38:31;;;;;;;5.7;2.6;;;;;;;9.08;66.78418;920.1417;;;;
2019/11/27 06:42:13;;;;;;;9.1;2.9;;;;;;;9;67.12598;920.0338;;;;
2019/11/27 06:44:40;;;;;;;9.7;3.1;;;;;;;8.83;67.04102;920.1068;;;;
2019/11/27 06:47:11;;;;;;;6;2.8;;;;;;;8.82;66.8916;920.0753;;;;
2019/11/27 06:49:38;;;;;;;3.2;1.4;;;;;;;8.93;63.63184;920.0467;;;;
2019/11/27 06:52:02;;;;;;;9.4;2.2;;;;;;;8.96;65.38867;920.0859;;;;
2019/11/27 06:54:50;;;;;;;7.7;1.8;;;;;;;9.23;63.80176;920.0787;;;;
2019/11/27 06:57:21;;;;;;;11.7;3;;;;;;;9.3;63.72266;920.0878;;;;
2019/11/27 06:59:47;;;;;;;6.9;1.9;;;;;;;9.44;61.00879;920.1749;;;;
2019/11/27 07:02:20;;;;;;;10.3;2.3;;;;;;;9.71;60.28418;920.1342;;;;
2019/11/27 07:04:47;;;;;;;5.8;2.1;;;;;;;9.9;60.13965;920.1671;;;;
2019/11/27 07:07:19;;;;;;;12.6;2.1;;;;;;;9.97;59.8877;920.2191;;;;
2019/11/27 07:09:45;;;;;;;14;2.3;;;;;;;10.1;60.16699;920.2726;;;;
2019/11/27 07:12:13;;;;;;;4.7;1.6;;;;;;;10.04;61.41406;920.3295;;;;
2019/11/27 07:14:48;;;;;;;10.4;2.3;;;;;;;10.15;61.05273;920.3895;;;;
2019/11/27 07:17:14;;;;;;;7.5;2.2;;;;;;;10.21;61.37988;920.3547;;;;
2019/11/27 07:19:40;;;;;;;10.9;3.2;;;;;;;9.91;63.23145;920.4872;;;;
2019/11/27 07:22:51;;;;;;;9;3;;;;;;;9.94;57.80664;920.5186;;;;
2019/11/27 07:25:25;;;;;;;16.4;2.7;;;;;;;10.06;60.53809;920.6948;;;;
2019/11/27 07:27:52;;;;;;;9.3;2.5;;;;;;;9.98;62.97852;920.7245;;;;
2019/11/27 07:30:27;;;;;;;6.3;1.9;;;;;;;9.98;62.43164;920.8851;;;;
2019/11/27 07:32:59;;;;;;;4.4;1.2;;;;;;;10.09;59.70996;920.9139;;;;
2019/11/27 07:35:28;;;;;;;20.4;2.2;;;;;;;10.18;60.46191;921.1613;;;;
2019/11/27 07:37:54;;;;;;;10.7;2;;;;;;;10.13;61.54004;921.3736;;;;
2019/11/27 07:40:28;;;;;;;3.8;1.2;;;;;;;10.18;61.09082;921.5023;;;;
2019/11/27 07:42:53;;;;;;;3.3;1.2;;;;;;;10.2;61.33301;921.6349;;;;
2019/11/27 07:45:22;;;;;;;5.8;2.3;;;;;;;10.15;62.47949;921.8115;;;;
2019/11/27 07:47:48;;;;;;;8.4;2;;;;;;;10.13;63.42188;921.8953;;;;
2019/11/27 07:50:18;;;;;;;6.1;2;;;;;;;10.1;63.20117;921.8528;;;;
2019/11/27 07:52:45;;;;;;;6;2;;;;;;;9.99;63.84766;921.9336;;;;
2019/11/27 07:55:15;;;;;;;6.6;2.5;;;;;;;9.73;64.89063;921.8951;;;;
2019/11/27 07:57:39;;;;;;;9;2.1;;;;;;;9.52;64.74414;922.0034;;;;
2019/11/27 08:00:04;;;;;;;5.7;2.2;;;;;;;9.53;65.80664;921.9086;;;;
2019/11/27 08:02:37;;;;;;;5.5;2.3;;;;;;;9.35;66.9502;921.9314;;;;
2019/11/27 08:05:09;;;;;;;18;3.5;;;;;;;9.27;69.13574;921.9568;;;;
2019/11/27 08:07:39;;;;;;;8.7;2.5;;;;;;;9.28;70.46973;922.0084;;;;
2019/11/27 08:10:09;;;;;;;4.9;2.4;;;;;;;9.4;69.3623;922.0012;;;;
2019/11/27 08:12:41;;;;;;;6.1;3.4;;;;;;;9.44;70.24512;922.0249;;;;
2019/11/27 08:15:10;;;;;;;3.4;2.1;;;;;;;9.34;69.10254;921.9855;;;;
2019/11/27 08:18:19;;;;;;;6.5;2.2;;;;;;;9.5;69.42285;922.0068;;;;
2019/11/27 08:20:45;;;;;;;13.8;6.4;;;;;;;9.61;71.10547;922.0302;;;;
2019/11/27 08:23:11;;;;;;;6.5;3.7;;;;;;;9.4;71.38965;922.0959;;;;
2019/11/27 08:25:40;;;;;;;7.3;3.1;;;;;;;9.64;70.20996;922.0854;;;;
2019/11/27 08:28:13;;;;;;;7.2;3.8;;;;;;;9.63;71.21094;921.9752;;;;
2019/11/27 08:30:37;;;;;;;11.3;3.4;;;;;;;9.44;71.04297;921.9432;;;;
2019/11/27 08:33:09;;;;;;;8.7;2.2;;;;;;;9.24;71.10059;922.159;;;;
2019/11/27 08:36:35;;;;;;;5.5;2.3;;;;;;;9.2;69.93262;922.2593;;;;
2019/11/27 08:39:06;;;;;;;5.1;2.3;;;;;;;9.09;70.66602;922.3359;;;;
2019/11/27 08:41:36;;;;;;;3.8;2.1;;;;;;;9.21;70.21875;922.3949;;;;
2019/11/27 08:44:08;;;;;;;3.9;2.3;;;;;;;9.39;69.78125;922.3995;;;;
2019/11/27 08:46:31;;;;;;;3.8;2.2;;;;;;;9.46;68.7334;922.4608;;;;
2019/11/27 08:48:56;;;;;;;5.3;2.2;;;;;;;9.54;68.56445;922.402;;;;
2019/11/27 08:51:28;;;;;;;5.2;2.2;;;;;;;9.64;68.64844;922.4906;;;;
2019/11/27 08:54:11;;;;;;;3.2;2.2;;;;;;;9.7;68.49902;922.7148;;;;
2019/11/27 08:56:48;;;;;;;6.3;2.8;;;;;;;9.68;69.07715;922.8247;;;;
2019/11/27 09:02:01;;;;;;;4.9;2.7;;;;;;;9.65;68.74121;922.8823;;;;
2019/11/27 09:04:26;;;;;;;6.4;2.8;;;;;;;9.6;68.7207;922.9478;;;;
2019/11/27 09:07:05;;;;;;;6.4;3.1;;;;;;;9.56;69.2959;922.9595;;;;
2019/11/27 09:09:33;;;;;;;5.2;3.4;;;;;;;9.62;69.60254;922.916;;;;
2019/11/27 09:12:06;;;;;;;6.2;3.2;;;;;;;9.74;68.89258;922.967;;;;
2019/11/27 09:19:34;;;;;;;6.9;3.7;;;;;;;9.95;69.67773;922.8374;;;;
2019/11/27 09:22:23;;;;;;;6.6;3.4;;;;;;;9.83;69.54492;922.8383;;;;
2019/11/27 09:24:46;;;;;;;12.3;5.1;;;;;;;9.61;71.16211;922.959;;;;
2019/11/27 09:27:18;;;;;;;8.5;3.9;;;;;;;9.74;71.86719;922.9503;;;;
2019/11/27 09:29:57;;;;;;;10.7;6;;;;;;;9.51;72.29492;923.0396;;;;
2019/11/27 09:32:35;;;;;;;8.3;5.3;;;;;;;9.25;72.85547;923.1547;;;;
2019/11/27 09:35:02;;;;;;;8.5;3.8;;;;;;;9.33;72.48047;923.1436;;;;
2019/11/27 09:37:30;;;;;;;6.1;3.5;;;;;;;9.45;72.25098;923.1775;;;;
2019/11/27 09:39:58;;;;;;;8.7;4;;;;;;;9.44;72.11328;923.157;;;;
2019/11/27 09:42:29;;;;;;;9.2;3.3;;;;;;;9.22;72.17969;923.178;;;;
2019/11/27 09:45:03;;;;;;;5.6;3.3;;;;;;;9.21;72.9502;923.2043;;;;
2019/11/27 09:47:45;;;;;;;10;4.4;;;;;;;9.31;73.91406;923.2637;;;;
2019/11/27 09:50:23;;;;;;;10.8;5;;;;;;;9.38;73.29785;923.3624;;;;
2019/11/27 09:52:49;;;;;;;13.4;6.5;;;;;;;9.55;73.21191;923.3711;;;;
2019/11/27 09:55:29;;;;;;;10;5.7;;;;;;;9.76;73.72754;923.2132;;;;
2019/11/27 09:58:01;;;;;;;10.5;4.7;;;;;;;9.91;74.24414;923.1361;;;;
2019/11/27 10:00:32;;;;;;;9.2;4.6;;;;;;;10.11;73.34277;923.0742;;;;
2019/11/27 10:03:02;;;;;;;7.5;4.5;;;;;;;10.24;73.0918;923.0085;;;;
2019/11/27 10:05:24;;;;;;;7.8;4.5;;;;;;;10.37;73.05664;923.0583;;;;
2019/11/27 10:07:55;;;;;;;11;4.5;;;;;;;10.34;72.37695;923.0699;;;;
2019/11/27 10:10:36;;;;;;;9.9;4.4;;;;;;;10.36;71.54785;922.9846;;;;
2019/11/27 10:13:14;;;;;;;8.4;4.5;;;;;;;10.47;72.25098;922.9664;;;;
2019/11/27 10:15:52;;;;;;;10.9;5;;;;;;;10.74;71.79395;922.9339;;;;
2019/11/27 10:18:37;;;;;;;10.5;6;;;;;;;10.68;70.32324;923.0352;;;;
2019/11/27 10:21:29;;;;;;;11.3;5.9;;;;;;;10.47;70.10449;922.96;;;;
2019/11/27 10:24:09;;;;;;;12;7.3;;;;;;;10.38;70.87793;923.0297;;;;
2019/11/27 10:26:48;;;;;;;15.1;8.1;;;;;;;10.06;71.40625;923.0399;;;;
2019/11/27 10:29:26;;;;;;;15.3;7.9;;;;;;;9.87;72.53906;923.1493;;;;
2019/11/27 10:31:52;;;;;;;13.4;6.7;;;;;;;9.87;72.20703;923.1136;;;;
2019/11/27 10:34:33;;;;;;;10.8;5.9;;;;;;;9.85;72.375;923.1655;;;;
2019/11/27 10:37:07;;;;;;;7.9;4.4;;;;;;;9.81;72.15234;923.188;;;;
2019/11/27 10:39:44;;;;;;;7.3;3.3;;;;;;;9.92;71.22461;923.2466;;;;
2019/11/27 10:42:24;;;;;;;6.8;3.1;;;;;;;10.23;70.44238;923.3157;;;;
2019/11/27 10:44:45;;;;;;;8.8;4.1;;;;;;;10.57;69.24219;923.3254;;;;
2019/11/27 10:47:20;;;;;;;4.9;3.1;;;;;;;10.66;69.35938;923.2583;;;;
2019/11/27 10:49:45;;;;;;;9;3.9;;;;;;;10.87;66.92383;923.2514;;;;
2019/11/27 10:52:17;;;;;;;5.9;3.4;;;;;;;10.8;67.66699;923.2792;;;;
2019/11/27 10:54:42;;;;;;;6.4;3.6;;;;;;;10.9;68.88379;923.3002;;;;
2019/11/27 10:57:16;;;;;;;5.3;2.7;;;;;;;10.97;69.03125;923.253;;;;
2019/11/27 10:59:46;;;;;;;5.8;2.2;;;;;;;11.01;69.19824;923.2618;;;;
2019/11/27 11:02:21;;;;;;;7.9;2.9;;;;;;;11.07;70.20117;923.2084;;;;
2019/11/27 11:04:48;;;;;;;6.4;2.8;;;;;;;11.33;70.4043;923.2122;;;;
2019/11/27 11:07:17;;;;;;;7.1;3.6;;;;;;;11.47;71.09082;923.2569;;;;
2019/11/27 11:09:46;;;;;;;7.7;3.3;;;;;;;11.66;71.49902;923.2433;;;;
2019/11/27 11:12:21;;;;;;;5.6;3.6;;;;;;;11.8;71.67285;923.2217;;;;
2019/11/27 11:14:58;;;;;;;9.1;4;;;;;;;11.88;71.61621;923.2547;;;;
2019/11/27 11:17:34;;;;;;;9.9;4.1;;;;;;;12.02;71.86719;923.2825;;;;
2019/11/27 11:20:03;;;;;;;7.3;4.6;;;;;;;12.25;73.22461;923.2678;;;;
2019/11/27 11:22:28;;;;;;;8.8;5.3;;;;;;;12.3;73.15234;923.3401;;;;
2019/11/27 11:25:01;;;;;;;10.5;5.3;;;;;;;12.34;69.07813;923.2649;;;;
2019/11/27 11:27:42;;;;;;;11.5;6;;;;;;;12.46;70.2207;923.2706;;;;
2019/11/27 11:30:12;;;;;;;10.7;5.6;;;;;;;12.63;69.19238;923.2344;;;;
2019/11/27 11:32:50;;;;;;;13.7;6.5;;;;;;;12.81;68.80859;923.1041;;;;
2019/11/27 11:35:21;;;;;;;12;5.8;;;;;;;12.59;70.20801;923.1296;;;;
2019/11/27 11:37:48;;;;;;;10.7;5.4;;;;;;;12.62;71.55469;923.095;;;;
2019/11/27 11:41:08;;;;;;;15.2;6.2;;;;;;;12.89;70.65625;923.0282;;;;
2019/11/27 11:43:36;;;;;;;12.2;7.8;;;;;;;12.78;70.76563;923.0249;;;;
2019/11/27 11:46:02;;;;;;;11.7;7.8;;;;;;;12.84;69.45508;922.9695;;;;
2019/11/27 11:48:41;;;;;;;13.7;8;;;;;;;12.85;71.41016;922.9275;;;;
2019/11/27 11:51:08;;;;;;;11;6.2;;;;;;;12.93;71.00879;922.8706;;;;
2019/11/27 11:53:33;;;;;;;9.5;5.7;;;;;;;12.97;70.82031;922.8359;;;;
2019/11/27 11:56:35;;;;;;;13.2;6;;;;;;;13.15;69.32031;922.8351;;;;
2019/11/27 11:59:02;;;;;;;9.1;5.3;;;;;;;13.33;68.0293;922.7637;;;;
2019/11/27 12:01:39;;;;;;;7.7;4.9;;;;;;;13.46;67.20996;922.6696;;;;
2019/11/27 12:04:09;;;;;;;10.1;5.2;;;;;;;13.5;65.51563;922.61;;;;
2019/11/27 12:06:37;;;;;;;8.7;4.8;;;;;;;13.48;65.76563;922.5945;;;;
2019/11/27 12:09:21;;;;;;;10;5;;;;;;;13.31;64.39453;922.539;;;;
2019/11/27 12:11:51;;;;;;;10.7;6.1;;;;;;;13;65.65918;922.4846;;;;
2019/11/27 12:14:19;;;;;;;11.9;6;;;;;;;12.94;67.44043;922.4204;;;;
2019/11/27 12:16:47;;;;;;;9.2;5.1;;;;;;;12.88;68.17676;922.4436;;;;
2019/11/27 12:19:22;;;;;;;8.2;4.7;;;;;;;12.99;67.93945;922.3235;;;;
2019/11/27 12:21:55;;;;;;;9;5.1;;;;;;;13.16;66.89844;922.2755;;;;
2019/11/27 12:24:30;;;;;;;8.1;4.7;;;;;;;13.37;65.87402;922.1225;;;;
2019/11/27 12:26:58;;;;;;;9.5;4;;;;;;;13.53;62.74902;922.0472;;;;
2019/11/27 12:29:29;;;;;;;8;3.7;;;;;;;13.38;63.06055;922.0391;;;;
2019/11/27 12:32:04;;;;;;;10.1;4.2;;;;;;;13.51;64.67773;921.9622;;;;
2019/11/27 12:34:29;;;;;;;11.6;4.7;;;;;;;14.01;64.82031;921.9001;;;;
2019/11/27 12:37:02;;;;;;;15.3;4.4;;;;;;;14.19;63.00488;921.9277;;;;
2019/11/27 12:39:30;;;;;;;30.5;5.2;;;;;;;14.32;62.71289;921.9297;;;;
2019/11/27 12:41:57;;;;;;;15.1;4.5;;;;;;;14.15;62.82715;921.8376;;;;
2019/11/27 12:44:45;;;;;;;8.5;3.6;;;;;;;14.04;63.22559;921.8299;;;;
2019/11/27 12:47:11;;;;;;;15.5;4.4;;;;;;;13.85;64.43945;921.8448;;;;
2019/11/27 12:49:41;;;;;;;12.1;4.6;;;;;;;13.95;64.69629;921.8173;;;;
2019/11/27 12:52:17;;;;;;;17.4;5.2;;;;;;;14.04;64.33008;921.7795;;;;
2019/11/27 12:54:43;;;;;;;20.1;9;;;;;;;14.08;63.93164;921.8119;;;;
2019/11/27 12:57:09;;;;;;;11.2;6.9;;;;;;;13.89;64.00879;921.843;;;;
2019/11/27 12:59:44;;;;;;;10.9;5.9;;;;;;;13.49;65.47852;921.8245;;;;
2019/11/27 13:02:17;;;;;;;7.3;3.8;;;;;;;12.95;66.52344;921.8092;;;;
2019/11/27 13:04:44;;;;;;;7.8;3.5;;;;;;;12.37;68.78418;921.8987;;;;
2019/11/27 13:07:24;;;;;;;6.8;3.5;;;;;;;12.04;70.2334;921.8797;;;;
2019/11/27 13:09:58;;;;;;;8.1;3.8;;;;;;;11.89;71.31934;921.847;;;;
2019/11/27 13:12:28;;;;;;;7.2;3.5;;;;;;;11.97;70.7041;921.8004;;;;
2019/11/27 13:14:59;;;;;;;8;3.9;;;;;;;12.04;71.11621;921.7545;;;;
2019/11/27 13:17:29;;;;;;;7.8;3.4;;;;;;;12.07;70.74219;921.6653;;;;
2019/11/27 13:20:25;;;;;;;6.2;3.1;;;;;;;12.08;70.18262;921.6915;;;;
2019/11/27 13:22:52;;;;;;;7.2;3.5;;;;;;;12.11;70.44043;921.7186;;;;
2019/11/27 13:25:21;;;;;;;7.3;4.4;;;;;;;12.1;70.02637;921.7411;;;;
2019/11/27 13:27:53;;;;;;;10.9;4.5;;;;;;;12.03;69.93457;921.7347;;;;
2019/11/27 13:30:26;;;;;;;6;3.6;;;;;;;12.18;69.25879;921.6907;;;;
2019/11/27 13:32:59;;;;;;;6.2;3.8;;;;;;;12.17;69.8418;921.6437;;;;
2019/11/27 13:35:28;;;;;;;6.4;3.6;;;;;;;12.15;69.28809;921.673;;;;
2019/11/27 13:38:15;;;;;;;4.2;2.9;;;;;;;12.07;68.80566;921.7172;;;;
2019/11/27 13:40:43;;;;;;;8;3.3;;;;;;;11.81;69.42969;921.6964;;;;
2019/11/27 13:43:03;;;;;;;7.3;4.9;;;;;;;11.74;69.86523;921.6917;;;;
2019/11/27 13:45:27;;;;;;;9.5;5.3;;;;;;;11.71;70.11133;921.6909;;;;
2019/11/27 13:47:52;;;;;;;8.7;5.8;;;;;;;11.81;69.98926;921.6969;;;;
2019/11/27 13:50:17;;;;;;;8;5.1;;;;;;;11.9;70.39453;921.7056;;;;
2019/11/27 13:52:46;;;;;;;7.3;4.6;;;;;;;11.84;69.97266;921.6542;;;;
2019/11/27 13:55:17;;;;;;;7;4.7;;;;;;;11.83;70.63379;921.6857;;;;
2019/11/27 13:57:42;;;;;;;9.8;5.7;;;;;;;11.72;70.94922;921.6085;;;;
2019/11/27 14:00:10;;;;;;;8.7;6.1;;;;;;;11.9;71.05957;921.6354;;;;
2019/11/27 14:02:33;;;;;;;9.3;6.4;;;;;;;11.97;71.12793;921.7126;;;;
2019/11/27 14:05:05;;;;;;;9.1;6.1;;;;;;;12.01;70.91699;921.7391;;;;
2019/11/27 14:07:24;;;;;;;9.2;6.3;;;;;;;12.07;70.99316;921.7523;;;;
2019/11/27 14:09:57;;;;;;;7.5;4.9;;;;;;;11.81;70.59766;921.6884;;;;
2019/11/27 14:12:19;;;;;;;7.3;4.6;;;;;;;11.61;71.63965;921.7535;;;;
2019/11/27 14:14:47;;;;;;;6.8;5.2;;;;;;;11.49;71.93066;921.8108;;;;
2019/11/27 14:17:13;;;;;;;9.1;6.1;;;;;;;11.54;71.9502;921.8033;;;;
2019/11/27 14:19:45;;;;;;;7.8;5.6;;;;;;;11.63;71.31152;921.7316;;;;
2019/11/27 14:22:20;;;;;;;9.9;6.7;;;;;;;11.74;71.96973;921.7061;;;;
2019/11/27 14:24:42;;;;;;;10.4;7.2;;;;;;;11.93;71.40723;921.6298;;;;
2019/11/27 14:27:10;;;;;;;16.4;9.2;;;;;;;11.97;71.11719;921.6042;;;;
2019/11/27 14:29:35;;;;;;;19.1;11.8;;;;;;;11.88;71.65039;921.6517;;;;
2019/11/27 14:32:01;;;;;;;21.2;12.9;;;;;;;11.89;71.99512;921.5734;;;;
2019/11/27 14:34:30;;;;;;;22.4;12.8;;;;;;;11.82;72.20215;921.6699;;;;
2019/11/27 14:36:56;;;;;;;23.3;12.4;;;;;;;11.78;73.08789;921.6224;;;;
2019/11/27 14:39:24;;;;;;;19.1;9.3;;;;;;;11.8;72.43848;921.6844;;;;
2019/11/27 14:41:50;;;;;;;39.7;8.9;;;;;;;11.71;72.77832;921.7268;;;;
2019/11/27 14:44:21;;;;;;;20.4;10.5;;;;;;;11.73;72.97754;921.736;;;;
2019/11/27 14:46:42;;;;;;;19.5;11.4;;;;;;;11.8;73.02441;921.7625;;;;
2019/11/27 14:49:08;;;;;;;21.8;12.2;;;;;;;11.92;72.92969;921.7967;;;;
2019/11/27 14:51:33;;;;;;;17.1;10.4;;;;;;;11.91;72.125;921.7827;;;;
2019/11/27 14:54:06;;;;;;;24.4;12.7;;;;;;;11.93;72.1748;921.9194;;;;
2019/11/27 14:56:39;;;;;;;33.6;16.3;;;;;;;11.88;72.42969;921.8855;;;;
2019/11/27 14:58:57;;;;;;;38.3;19.5;;;;;;;11.8;72.45117;921.8605;;;;
2019/11/27 15:01:30;;;;;;;31.5;16.9;;;;;;;11.82;72.66113;921.9385;;;;
2019/11/27 15:03:59;;;;;;;23.2;13.5;;;;;;;11.76;72.60449;921.9711;;;;
2019/11/27 15:06:27;;;;;;;27.9;16.5;;;;;;;11.73;73.16113;922.0094;;;;
2019/11/27 15:08:57;;;;;;;24.9;17.4;;;;;;;11.69;73.04004;922.0834;;;;
2019/11/27 15:11:38;;;;;;;18.1;12.8;;;;;;;11.64;73.19141;922.1259;;;;
2019/11/27 15:14:07;;;;;;;12.6;7.6;;;;;;;11.54;74.67188;922.0338;;;;
2019/11/27 15:16:35;;;;;;;6.5;3.7;;;;;;;11.46;75.25488;922.1589;;;;
2019/11/27 15:19:00;;;;;;;7.3;3.8;;;;;;;11.49;75.30566;922.1065;;;;
2019/11/27 15:23:52;;;;;;;4.7;3.1;;;;;;;11.65;74.33789;922.1688;;;;
2019/11/27 15:26:40;;;;;;;5.3;3.3;;;;;;;11.76;73.90918;922.1992;;;;
2019/11/27 15:29:16;;;;;;;6;3.8;;;;;;;11.81;73.7002;922.1668;;;;
2019/11/27 15:31:48;;;;;;;7.6;4.3;;;;;;;11.84;73.44238;922.2523;;;;
2019/11/27 15:34:07;;;;;;;6;4.3;;;;;;;11.84;73.39648;922.3505;;;;
2019/11/27 15:36:58;;;;;;;7.1;4.6;;;;;;;11.78;73.83301;922.3616;;;;
2019/11/27 15:40:33;;;;;;;7.8;4.6;;;;;;;11.77;73.77246;922.3897;;;;
2019/11/27 15:43:25;;;;;;;5.8;4.1;;;;;;;11.54;74.56934;922.402;;;;
2019/11/27 15:46:07;;;;;;;5.7;4.1;;;;;;;11.38;75.66211;922.377;;;;
2019/11/27 15:48:45;;;;;;;6.8;4.5;;;;;;;11.37;76.0166;922.4297;;;;
2019/11/27 15:51:10;;;;;;;16.6;11.9;;;;;;;11.34;76.62988;922.4501;;;;
2019/11/27 15:53:37;;;;;;;11.2;8.2;;;;;;;11.22;77.48828;922.4844;;;;
2019/11/27 15:56:09;;;;;;;11.3;6.7;;;;;;;11.14;77.55566;922.4417;;;;
2019/11/27 15:58:50;;;;;;;11.4;8;;;;;;;11.08;77.8623;922.4749;;;;
2019/11/27 16:01:16;;;;;;;9.7;6.7;;;;;;;11.07;78.125;922.4486;;;;
2019/11/27 16:03:49;;;;;;;10.2;5.9;;;;;;;11.15;77.84082;922.4814;;;;
2019/11/27 16:06:17;;;;;;;10.7;5.4;;;;;;;11.04;78.51855;922.5176;;;;
2019/11/27 16:08:46;;;;;;;7.4;4.6;;;;;;;10.89;79.24512;922.4897;;;;
2019/11/27 16:11:08;;;;;;;6.1;4;;;;;;;10.88;79.05078;922.548;;;;
2019/11/27 16:13:34;;;;;;;7.6;4.6;;;;;;;10.94;78.47852;922.5637;;;;
2019/11/27 16:15:59;;;;;;;11.1;6.7;;;;;;;10.98;78.52051;922.6609;;;;
2019/11/27 16:18:32;;;;;;;10.3;6.2;;;;;;;11.03;77.5918;922.7919;;;;
2019/11/27 16:20:58;;;;;;;7.8;5.8;;;;;;;10.99;78.11035;922.8257;;;;
2019/11/27 16:23:27;;;;;;;6.9;4.9;;;;;;;10.95;78.42285;922.8511;;;;
2019/11/27 16:25:53;;;;;;;7.7;5.1;;;;;;;10.93;78.45313;922.8354;;;;
2019/11/27 16:28:24;;;;;;;10.8;7.4;;;;;;;10.84;78.96289;922.8394;;;;
2019/11/27 16:30:53;;;;;;;10.8;7.3;;;;;;;10.79;78.06152;922.9005;;;;
2019/11/27 16:33:22;;;;;;;10;6.4;;;;;;;10.77;77.46484;922.8339;;;;
2019/11/27 16:35:56;;;;;;;12.5;9.4;;;;;;;10.58;79.0752;922.894;;;;